Time;durP1;ratioP1;P1;durP2;ratioP2;P2;SDS_P1;SDS_P2;PMS_P1;PMS_P2;Temp;Humidity;BMP_temperature;BMP_pressure;BME280_temperature;BME280_humidity;BME280_pressure;Samples;Min_cycle;Max_cycle;Signal;HPM_P1;HPM_P2
2021/04/22 00:02:19;;;;;;;1.07;0.83;;;6.60;99.90;;;;;;5056107;28;20246;-88
2021/04/22 00:04:45;;;;;;;1.57;1.47;;;6.60;99.90;;;;;;5046458;28;20205;-87
2021/04/22 00:07:11;;;;;;;0.10;0.10;;;6.60;99.90;;;;;;5049950;28;20268;-87
2021/04/22 00:09:37;;;;;;;2.17;1.83;;;6.60;99.90;;;;;;5036553;28;20241;-90
2021/04/22 00:12:07;;;;;;;2.90;1.90;;;6.50;99.90;;;;;;5055540;28;21086;-88
2021/04/22 00:14:33;;;;;;;3.40;1.37;;;6.50;99.90;;;;;;5056357;28;20212;-89
2021/04/22 00:16:58;;;;;;;0.20;0.20;;;6.50;99.90;;;;;;5052757;28;20188;-89
2021/04/22 00:19:24;;;;;;;1.07;1.07;;;6.50;99.90;;;;;;5054174;28;20181;-88
2021/04/22 00:21:50;;;;;;;0.30;0.30;;;6.50;99.90;;;;;;5031852;28;20213;-90
2021/04/22 00:24:16;;;;;;;0.20;0.20;;;6.40;99.90;;;;;;5035283;28;20232;-86
2021/04/22 00:26:42;;;;;;;0.27;0.27;;;6.40;99.90;;;;;;5034575;28;20271;-88
2021/04/22 00:29:07;;;;;;;0.67;0.67;;;6.40;99.90;;;;;;5033470;28;20224;-87
2021/04/22 00:31:33;;;;;;;1.90;1.23;;;6.40;99.90;;;;;;5035254;28;20684;-88
2021/04/22 00:34:00;;;;;;;0.20;0.20;;;6.40;99.90;;;;;;5050230;28;20803;-90
2021/04/22 00:36:25;;;;;;;0.70;0.70;;;6.50;99.90;;;;;;5050264;28;20220;-87
2021/04/22 00:38:51;;;;;;;1.63;1.53;;;6.50;99.90;;;;;;5050235;28;20971;-89
2021/04/22 00:41:17;;;;;;;0.73;0.73;;;6.50;99.90;;;;;;5020322;28;20239;-90
2021/04/22 00:43:42;;;;;;;1.40;0.50;;;6.60;99.90;;;;;;5031578;28;20651;-87
2021/04/22 00:46:08;;;;;;;4.27;0.67;;;6.60;99.90;;;;;;5029173;28;20609;-89
2021/04/22 00:48:34;;;;;;;0.40;0.40;;;6.60;99.90;;;;;;5029811;28;20217;-91
2021/04/22 00:51:00;;;;;;;2.77;1.03;;;6.70;99.90;;;;;;5032434;28;20627;-91
2021/04/22 00:53:25;;;;;;;2.50;1.07;;;6.60;99.90;;;;;;5049533;28;20253;-89
2021/04/22 00:55:52;;;;;;;0.53;0.53;;;6.50;99.90;;;;;;5035053;28;20971;-89
2021/04/22 00:58:18;;;;;;;0.30;0.30;;;6.50;99.90;;;;;;5050765;28;20185;-87
2021/04/22 01:00:51;;;;;;;3.07;0.80;;;6.50;99.90;;;;;;5049087;28;20678;-89
2021/04/22 01:03:17;;;;;;;2.77;0.87;;;6.60;99.90;;;;;;5051587;28;20230;-88
2021/04/22 01:05:46;;;;;;;0.20;0.20;;;6.50;99.90;;;;;;5050388;28;20260;-87
2021/04/22 01:08:12;;;;;;;0.67;0.67;;;6.60;99.90;;;;;;5049872;28;21002;-88
2021/04/22 01:10:39;;;;;;;0.50;0.47;;;6.60;99.90;;;;;;5051060;28;20272;-88
2021/04/22 01:13:05;;;;;;;0.60;0.50;;;6.60;99.90;;;;;;5049317;28;20275;-88
2021/04/22 01:15:31;;;;;;;0.40;0.40;;;6.60;99.90;;;;;;5053547;28;20233;-88
2021/04/22 01:17:59;;;;;;;0.73;0.73;;;6.60;99.90;;;;;;5051906;28;20244;-88
2021/04/22 01:20:27;;;;;;;15.20;3.00;;;6.60;99.90;;;;;;5035693;28;20218;-87
2021/04/22 01:22:55;;;;;;;0.40;0.33;;;6.60;99.90;;;;;;5053155;28;20221;-88
2021/04/22 01:25:43;;;;;;;0.27;0.27;;;6.60;99.90;;;;;;5054856;28;20208;-88
2021/04/22 01:28:11;;;;;;;0.40;0.40;;;6.60;99.90;;;;;;5050652;28;20228;-88
2021/04/22 01:30:41;;;;;;;0.30;0.30;;;6.60;99.90;;;;;;5052114;28;21261;-89
2021/04/22 01:33:08;;;;;;;0.57;0.57;;;6.60;99.90;;;;;;5051214;28;20241;-89
2021/04/22 01:35:40;;;;;;;0.40;0.40;;;6.60;99.90;;;;;;5051416;28;20620;-88
2021/04/22 01:38:07;;;;;;;1.50;1.50;;;6.50;99.90;;;;;;5050897;28;20328;-86
2021/04/22 01:40:35;;;;;;;2.83;2.30;;;6.60;99.90;;;;;;5053968;28;20669;-87
2021/04/22 01:43:01;;;;;;;0.30;0.30;;;6.60;99.90;;;;;;5053551;28;20213;-86
2021/04/22 01:45:27;;;;;;;1.10;1.10;;;6.60;99.90;;;;;;5052900;28;20225;-87
2021/04/22 01:47:53;;;;;;;1.33;0.83;;;6.70;99.90;;;;;;5053665;28;20708;-87
2021/04/22 01:50:23;;;;;;;2.60;1.30;;;6.70;99.90;;;;;;5053832;28;20617;-87
2021/04/22 01:52:50;;;;;;;0.20;0.20;;;6.70;99.90;;;;;;5051432;28;20176;-88
2021/04/22 01:55:22;;;;;;;0.50;0.50;;;6.70;99.90;;;;;;5053713;28;20189;-89
2021/04/22 01:57:49;;;;;;;0.23;0.23;;;6.70;99.90;;;;;;5068867;28;20669;-87
2021/04/22 02:00:19;;;;;;;0.30;0.30;;;6.70;99.90;;;;;;5065081;28;20217;-88
2021/04/22 02:02:45;;;;;;;0.50;0.50;;;6.70;99.90;;;;;;5047502;28;20710;-88
2021/04/22 02:05:12;;;;;;;2.83;1.13;;;6.70;99.90;;;;;;5067564;28;20728;-90
2021/04/22 02:07:38;;;;;;;0.57;0.57;;;6.70;99.90;;;;;;5035946;28;20197;-89
2021/04/22 02:10:07;;;;;;;0.50;0.50;;;6.70;99.90;;;;;;5035991;28;20213;-88
2021/04/22 02:12:33;;;;;;;0.53;0.30;;;6.60;99.90;;;;;;5054110;28;20240;-89
2021/04/22 02:14:59;;;;;;;0.40;0.40;;;6.60;99.90;;;;;;5021276;28;20224;-88
2021/04/22 02:17:25;;;;;;;0.47;0.47;;;6.70;99.90;;;;;;5053526;28;20753;-87
2021/04/22 02:19:51;;;;;;;1.93;0.87;;;6.70;99.90;;;;;;5052350;28;20193;-88
2021/04/22 02:22:17;;;;;;;0.30;0.30;;;6.80;99.90;;;;;;5037743;28;20208;-87
2021/04/22 02:24:43;;;;;;;0.50;0.50;;;6.80;99.90;;;;;;5052825;28;20228;-88
2021/04/22 02:27:09;;;;;;;1.03;1.03;;;6.80;99.90;;;;;;5071588;28;20274;-88
2021/04/22 02:29:34;;;;;;;2.63;1.20;;;6.70;99.90;;;;;;5053083;28;20278;-88
2021/04/22 02:32:01;;;;;;;2.23;0.90;;;6.70;99.90;;;;;;5022271;28;20181;-89
2021/04/22 02:34:27;;;;;;;2.20;0.87;;;6.70;99.90;;;;;;5055946;28;20205;-87
2021/04/22 02:36:53;;;;;;;0.67;0.67;;;6.70;99.90;;;;;;5019464;28;20638;-88
2021/04/22 02:39:18;;;;;;;0.30;0.30;;;6.70;99.90;;;;;;5035789;28;20232;-89
2021/04/22 02:41:44;;;;;;;0.70;0.60;;;6.70;99.90;;;;;;5023109;28;20208;-88
2021/04/22 02:44:10;;;;;;;1.17;1.13;;;6.70;99.90;;;;;;5053968;28;21145;-88
2021/04/22 02:46:36;;;;;;;2.03;1.13;;;6.80;99.90;;;;;;5037088;28;20352;-88
2021/04/22 02:49:02;;;;;;;1.90;1.27;;;6.80;99.90;;;;;;5038090;28;20367;-88
2021/04/22 02:51:27;;;;;;;0.93;0.93;;;6.70;99.90;;;;;;5035968;28;21054;-89
2021/04/22 02:53:53;;;;;;;5.20;0.63;;;6.70;99.90;;;;;;5052000;28;20226;-88
2021/04/22 02:56:19;;;;;;;0.30;0.30;;;6.70;99.90;;;;;;5019478;28;20247;-90
2021/04/22 02:58:44;;;;;;;0.50;0.50;;;6.70;99.90;;;;;;5021306;28;20190;-89
2021/04/22 03:01:10;;;;;;;1.00;0.97;;;6.70;99.90;;;;;;5047617;28;20706;-89
2021/04/22 03:03:36;;;;;;;0.60;0.60;;;6.70;99.90;;;;;;5056546;28;20281;-88
2021/04/22 03:06:02;;;;;;;2.20;0.93;;;6.70;99.90;;;;;;5039137;28;20229;-89
2021/04/22 03:08:27;;;;;;;1.30;0.53;;;6.60;99.90;;;;;;5058501;28;20247;-88
2021/04/22 03:10:53;;;;;;;2.13;0.43;;;6.70;99.90;;;;;;5039197;28;20673;-87
2021/04/22 03:13:19;;;;;;;3.07;0.80;;;6.60;99.90;;;;;;5042884;28;20587;-88
2021/04/22 03:15:45;;;;;;;0.33;0.33;;;6.60;99.90;;;;;;5038286;28;20342;-88
2021/04/22 03:18:11;;;;;;;0.47;0.47;;;6.50;99.90;;;;;;5057032;28;20240;-88
2021/04/22 03:20:37;;;;;;;0.50;0.50;;;6.60;99.90;;;;;;5055971;28;20289;-88
2021/04/22 03:23:03;;;;;;;0.50;0.50;;;6.60;99.90;;;;;;5040963;28;20283;-86
2021/04/22 03:25:30;;;;;;;0.33;0.33;;;6.60;99.90;;;;;;5074748;28;20209;-88
2021/04/22 03:27:56;;;;;;;0.63;0.50;;;6.60;99.90;;;;;;5053910;28;20224;-89
2021/04/22 03:30:28;;;;;;;1.67;0.53;;;6.60;99.90;;;;;;5055535;28;20248;-86
2021/04/22 03:32:54;;;;;;;2.03;0.80;;;6.60;99.90;;;;;;5074058;28;20224;-89
2021/04/22 03:35:20;;;;;;;0.30;0.30;;;6.60;99.90;;;;;;5057024;28;20225;-88
2021/04/22 03:37:46;;;;;;;0.73;0.57;;;6.60;99.90;;;;;;5040990;28;20642;-86
2021/04/22 03:40:14;;;;;;;0.30;0.30;;;6.50;99.90;;;;;;5080360;28;20203;-88
2021/04/22 03:42:40;;;;;;;4.27;0.63;;;6.50;99.90;;;;;;5041625;28;20274;-87
2021/04/22 03:45:09;;;;;;;0.93;0.93;;;6.50;99.90;;;;;;5058643;28;20297;-89
2021/04/22 03:47:35;;;;;;;0.67;0.53;;;6.50;99.90;;;;;;5074456;28;20228;-89
2021/04/22 03:50:01;;;;;;;0.57;0.57;;;6.60;99.90;;;;;;5042209;28;20189;-89
2021/04/22 03:52:27;;;;;;;6.53;0.87;;;6.60;99.90;;;;;;5053568;28;20187;-88
2021/04/22 03:54:55;;;;;;;4.50;0.33;;;6.50;99.90;;;;;;5040251;28;20229;-88
2021/04/22 03:57:20;;;;;;;0.57;0.50;;;6.40;99.90;;;;;;5070297;28;20213;-85
2021/04/22 03:59:47;;;;;;;0.40;0.40;;;6.50;99.90;;;;;;5040841;28;20776;-87
2021/04/22 04:02:12;;;;;;;0.90;0.90;;;6.50;99.90;;;;;;5038654;28;20227;-88
2021/04/22 04:04:38;;;;;;;2.10;0.97;;;6.50;99.90;;;;;;5040420;28;20192;-87
2021/04/22 04:07:04;;;;;;;0.10;0.10;;;6.60;99.90;;;;;;5022600;28;20209;-88
2021/04/22 04:09:29;;;;;;;0.23;0.23;;;6.50;99.90;;;;;;5073968;28;20209;-89
2021/04/22 04:11:55;;;;;;;0.27;0.27;;;6.50;99.90;;;;;;5039812;28;20213;-87
2021/04/22 04:14:21;;;;;;;0.43;0.43;;;6.50;99.90;;;;;;5037336;28;21228;-88
2021/04/22 04:16:47;;;;;;;0.40;0.40;;;6.50;99.90;;;;;;5058139;28;20198;-90
2021/04/22 04:19:13;;;;;;;0.57;0.57;;;6.40;99.90;;;;;;5036566;28;20200;-87
2021/04/22 04:21:38;;;;;;;3.10;1.83;;;6.40;99.90;;;;;;5024002;28;20208;-89
2021/04/22 04:24:05;;;;;;;5.73;0.80;;;6.30;99.90;;;;;;5055294;28;20209;-89
2021/04/22 04:26:31;;;;;;;4.43;0.73;;;6.30;99.90;;;;;;5073357;28;20228;-92
2021/04/22 04:28:56;;;;;;;2.23;1.60;;;6.40;99.90;;;;;;5053814;28;20196;-84
2021/04/22 04:31:22;;;;;;;0.77;0.47;;;6.40;99.90;;;;;;5058201;28;20982;-85
2021/04/22 04:33:50;;;;;;;2.00;0.77;;;6.40;99.90;;;;;;5037905;28;20736;-86
2021/04/22 04:36:15;;;;;;;12.77;1.00;;;6.40;99.90;;;;;;5021191;28;20562;-86
2021/04/22 04:38:41;;;;;;;0.27;0.27;;;6.40;99.90;;;;;;5038061;28;20222;-86
2021/04/22 04:41:07;;;;;;;9.73;1.60;;;6.40;99.90;;;;;;5054145;28;20725;-86
2021/04/22 04:43:33;;;;;;;11.40;0.60;;;6.40;99.90;;;;;;5051465;28;20929;-86
2021/04/22 04:45:59;;;;;;;1.43;1.33;;;6.50;99.90;;;;;;5032747;28;20825;-86
2021/04/22 04:48:24;;;;;;;1.30;1.20;;;6.50;99.90;;;;;;5036573;28;20241;-88
2021/04/22 04:50:50;;;;;;;0.77;0.53;;;6.50;99.90;;;;;;5049255;28;20667;-87
2021/04/22 04:53:16;;;;;;;0.43;0.43;;;6.50;99.90;;;;;;5032527;28;20300;-86
2021/04/22 04:55:42;;;;;;;0.90;0.90;;;6.60;99.90;;;;;;5019421;28;20587;-86
2021/04/22 04:58:08;;;;;;;0.30;0.30;;;6.60;99.90;;;;;;5052781;28;20551;-86
2021/04/22 05:00:33;;;;;;;0.73;0.73;;;6.70;99.90;;;;;;5016923;28;20296;-86
2021/04/22 05:02:59;;;;;;;2.40;1.37;;;6.60;99.90;;;;;;5025331;28;20229;-87
2021/04/22 05:05:25;;;;;;;0.87;0.87;;;6.70;99.90;;;;;;5015433;28;20229;-88
2021/04/22 05:07:50;;;;;;;1.57;1.07;;;6.70;99.90;;;;;;5049402;28;20933;-88
2021/04/22 05:10:17;;;;;;;1.40;1.07;;;6.70;99.90;;;;;;5034349;28;20201;-87
2021/04/22 05:12:42;;;;;;;7.20;2.00;;;6.70;99.90;;;;;;5032046;28;20215;-88
2021/04/22 05:15:09;;;;;;;4.80;0.93;;;6.70;99.90;;;;;;5035841;28;21200;-86
2021/04/22 05:17:35;;;;;;;0.47;0.47;;;6.70;99.90;;;;;;5049469;28;20225;-85
2021/04/22 05:20:04;;;;;;;0.30;0.30;;;6.70;99.90;;;;;;5051865;28;20200;-85
2021/04/22 05:22:30;;;;;;;1.33;0.83;;;6.80;99.90;;;;;;5052719;28;20189;-85
2021/04/22 05:24:55;;;;;;;1.40;0.50;;;6.80;99.90;;;;;;5017926;28;20711;-85
2021/04/22 05:27:21;;;;;;;1.07;0.97;;;6.80;99.90;;;;;;5032556;28;20825;-87
2021/04/22 05:29:47;;;;;;;6.53;0.87;;;6.80;99.90;;;;;;5049348;28;20364;-87
2021/04/22 05:32:12;;;;;;;5.53;1.37;;;6.80;99.90;;;;;;5049692;28;20725;-85
2021/04/22 05:34:38;;;;;;;0.73;0.73;;;6.80;99.90;;;;;;5036091;28;21062;-84
2021/04/22 05:37:04;;;;;;;0.40;0.40;;;6.90;99.90;;;;;;5048167;28;20225;-86
2021/04/22 05:39:30;;;;;;;0.80;0.80;;;7.00;99.90;;;;;;5048628;28;20226;-87
2021/04/22 05:41:57;;;;;;;1.27;1.27;;;7.00;99.90;;;;;;5032786;28;20781;-89
2021/04/22 05:44:24;;;;;;;1.23;0.70;;;7.00;99.90;;;;;;5029919;28;20836;-88
2021/04/22 05:46:50;;;;;;;0.67;0.43;;;7.00;99.90;;;;;;5045370;28;20197;-85
2021/04/22 05:49:15;;;;;;;0.40;0.40;;;7.00;99.90;;;;;;5035161;28;20717;-88
2021/04/22 05:51:42;;;;;;;2.03;1.93;;;7.00;99.90;;;;;;5033787;28;20816;-87
2021/04/22 05:54:09;;;;;;;0.33;0.33;;;7.00;99.90;;;;;;5049544;28;20214;-88
2021/04/22 05:56:35;;;;;;;0.63;0.63;;;7.00;99.90;;;;;;5051203;28;20229;-88
2021/04/22 05:59:01;;;;;;;0.30;0.20;;;7.00;99.90;;;;;;5035323;28;20188;-89
2021/04/22 06:01:26;;;;;;;0.20;0.20;;;7.00;99.90;;;;;;5051496;28;20213;-88
2021/04/22 06:03:52;;;;;;;1.10;0.73;;;7.10;99.90;;;;;;5053494;28;20559;-88
2021/04/22 06:06:18;;;;;;;1.20;1.10;;;7.10;99.90;;;;;;5018844;28;20761;-88
2021/04/22 06:08:45;;;;;;;1.20;1.10;;;7.10;99.90;;;;;;5049410;28;20615;-87
2021/04/22 06:11:11;;;;;;;3.93;1.40;;;7.20;99.90;;;;;;5049766;28;20325;-88
2021/04/22 06:13:37;;;;;;;2.80;0.87;;;7.30;99.90;;;;;;5022572;28;20190;-87
2021/04/22 06:16:03;;;;;;;1.80;0.60;;;7.30;99.90;;;;;;5014652;28;20854;-91
2021/04/22 06:18:28;;;;;;;2.10;0.60;;;7.30;99.90;;;;;;5048241;28;20217;-89
2021/04/22 06:20:54;;;;;;;0.40;0.40;;;7.30;99.90;;;;;;5016662;28;20267;-88
2021/04/22 06:23:21;;;;;;;0.30;0.30;;;7.30;99.90;;;;;;5031954;28;20221;-90
2021/04/22 06:25:47;;;;;;;3.23;0.60;;;7.40;99.90;;;;;;5067625;28;20217;-88
2021/04/22 06:28:13;;;;;;;0.50;0.50;;;7.50;99.90;;;;;;5018789;28;20198;-88
2021/04/22 06:30:38;;;;;;;0.30;0.30;;;7.50;99.90;;;;;;5033296;28;20268;-88
2021/04/22 06:33:04;;;;;;;0.17;0.17;;;7.40;99.90;;;;;;5033190;28;20638;-90
2021/04/22 06:35:30;;;;;;;1.73;1.40;;;7.30;99.90;;;;;;5052891;28;20229;-86
2021/04/22 06:37:56;;;;;;;0.50;0.47;;;7.30;99.90;;;;;;5034916;28;20277;-87
2021/04/22 06:40:23;;;;;;;0.57;0.47;;;7.30;99.90;;;;;;5052616;28;20242;-85
2021/04/22 06:42:49;;;;;;;2.40;2.30;;;7.30;99.90;;;;;;5051210;28;20218;-90
2021/04/22 06:45:16;;;;;;;0.63;0.63;;;7.40;99.90;;;;;;5035814;28;20275;-89
2021/04/22 06:47:43;;;;;;;0.53;0.53;;;7.50;99.90;;;;;;5049092;28;21034;-91
2021/04/22 06:50:12;;;;;;;0.40;0.37;;;7.60;99.90;;;;;;5032556;28;20224;-90
2021/04/22 06:52:39;;;;;;;1.70;1.10;;;7.60;99.90;;;;;;5053088;28;20184;-90
2021/04/22 06:55:10;;;;;;;0.50;0.50;;;7.60;99.90;;;;;;5035387;28;20214;-88
2021/04/22 06:57:36;;;;;;;0.97;0.73;;;7.60;99.90;;;;;;5048350;28;20209;-90
2021/04/22 07:00:10;;;;;;;0.30;0.30;;;7.60;99.90;;;;;;5018211;28;20743;-90
2021/04/22 07:02:37;;;;;;;0.80;0.50;;;7.80;99.90;;;;;;5067869;28;20213;-90
2021/04/22 07:05:05;;;;;;;1.60;0.40;;;7.80;99.90;;;;;;5034899;28;20220;-89
2021/04/22 07:07:31;;;;;;;1.53;1.43;;;7.80;99.90;;;;;;5052426;28;20188;-90
2021/04/22 07:09:57;;;;;;;0.40;0.40;;;7.80;99.90;;;;;;5050067;28;20229;-91
2021/04/22 07:12:22;;;;;;;0.33;0.33;;;7.80;99.90;;;;;;5053293;28;20572;-90
2021/04/22 07:14:48;;;;;;;0.40;0.40;;;7.80;99.90;;;;;;5051865;28;20274;-89
2021/04/22 07:17:14;;;;;;;0.20;0.20;;;7.80;99.90;;;;;;5051084;28;20747;-90
2021/04/22 07:19:40;;;;;;;0.67;0.50;;;7.70;99.90;;;;;;5035621;28;20189;-89
2021/04/22 07:22:06;;;;;;;0.30;0.30;;;7.60;99.90;;;;;;5053793;28;20224;-90
2021/04/22 07:24:32;;;;;;;0.40;0.40;;;7.60;99.90;;;;;;5036193;28;20670;-90
2021/04/22 07:26:58;;;;;;;1.63;1.53;;;7.60;99.90;;;;;;5038423;28;20292;-90
2021/04/22 07:29:24;;;;;;;1.40;0.80;;;7.60;99.90;;;;;;5044345;28;20206;-90
2021/04/22 07:31:50;;;;;;;2.17;1.93;;;7.60;99.90;;;;;;5018187;28;20724;-91
2021/04/22 07:34:15;;;;;;;0.70;0.70;;;7.70;99.90;;;;;;5036060;28;20663;-89
2021/04/22 07:36:41;;;;;;;1.17;1.17;;;7.70;99.90;;;;;;5017292;28;20736;-91
2021/04/22 07:39:07;;;;;;;0.40;0.33;;;7.70;99.90;;;;;;5035425;28;20302;-89
2021/04/22 07:41:33;;;;;;;1.93;0.93;;;7.70;99.90;;;;;;5035263;28;20217;-91
2021/04/22 07:43:59;;;;;;;2.27;2.17;;;7.90;99.90;;;;;;5051231;28;20229;-90
2021/04/22 07:46:25;;;;;;;0.50;0.50;;;8.00;99.90;;;;;;5050409;28;20221;-90
2021/04/22 07:48:50;;;;;;;0.23;0.23;;;8.00;99.90;;;;;;5016279;28;20222;-89
2021/04/22 07:51:16;;;;;;;4.73;2.37;;;8.60;99.90;;;;;;5052553;28;20594;-90
2021/04/22 07:53:42;;;;;;;0.50;0.50;;;9.70;99.90;;;;;;5035828;28;20253;-91
2021/04/22 07:56:08;;;;;;;0.80;0.80;;;9.40;99.90;;;;;;5034874;28;20261;-91
2021/04/22 07:58:34;;;;;;;0.40;0.40;;;8.90;99.90;;;;;;5019544;28;20198;-91
2021/04/22 08:00:59;;;;;;;0.23;0.23;;;8.50;99.90;;;;;;5018502;28;20555;-91
2021/04/22 08:03:26;;;;;;;1.90;0.97;;;8.00;99.90;;;;;;5036164;28;20304;-92
2021/04/22 08:05:56;;;;;;;0.50;0.50;;;8.20;99.90;;;;;;5035123;28;20255;-92
2021/04/22 08:08:24;;;;;;;3.83;0.57;;;8.90;99.90;;;;;;5049807;28;20226;-91
2021/04/22 08:10:50;;;;;;;2.43;2.17;;;10.40;99.90;;;;;;5051211;28;20647;-91
2021/04/22 08:13:19;;;;;;;0.50;0.50;;;10.20;99.90;;;;;;5054588;28;20221;-91
2021/04/22 08:15:48;;;;;;;0.67;0.67;;;9.60;99.90;;;;;;5051181;28;20256;-89
2021/04/22 08:18:16;;;;;;;0.30;0.30;;;9.80;99.90;;;;;;5069584;28;20222;-87
2021/04/22 08:20:42;;;;;;;3.50;1.67;;;9.20;99.90;;;;;;5053241;28;20217;-89
2021/04/22 08:23:10;;;;;;;1.70;1.10;;;9.70;99.90;;;;;;5053159;28;20217;-87
2021/04/22 08:25:46;;;;;;;0.30;0.30;;;9.60;99.90;;;;;;5040321;28;20228;-88
2021/04/22 08:28:15;;;;;;;0.40;0.40;;;9.30;99.90;;;;;;5053797;28;21145;-89
2021/04/22 08:30:46;;;;;;;0.20;0.20;;;9.30;99.90;;;;;;5053357;28;20292;-89
2021/04/22 08:33:16;;;;;;;0.30;0.30;;;9.70;99.90;;;;;;5052004;28;20229;-89
2021/04/22 08:35:43;;;;;;;0.50;0.50;;;9.60;99.90;;;;;;5050972;28;20244;-88
2021/04/22 08:38:10;;;;;;;0.80;0.80;;;9.70;99.90;;;;;;5048623;28;20212;-85
2021/04/22 08:40:36;;;;;;;0.40;0.40;;;10.80;99.90;;;;;;5051403;28;20204;-89
2021/04/22 08:43:02;;;;;;;0.43;0.43;;;10.70;99.90;;;;;;5053072;28;20217;-86
2021/04/22 08:45:28;;;;;;;0.20;0.20;;;10.50;99.90;;;;;;5055179;28;20713;-88
2021/04/22 08:47:54;;;;;;;4.70;0.77;;;10.40;99.90;;;;;;5051723;28;20209;-86
2021/04/22 08:50:29;;;;;;;0.10;0.10;;;10.30;99.90;;;;;;5071270;28;20217;-86
2021/04/22 08:52:59;;;;;;;0.77;0.40;;;10.40;99.90;;;;;;5052803;28;20184;-88
2021/04/22 08:55:29;;;;;;;0.87;0.87;;;10.70;99.90;;;;;;5074114;28;20190;-88
2021/04/22 08:57:57;;;;;;;0.50;0.50;;;9.90;99.90;;;;;;5069293;28;20220;-87
2021/04/22 09:00:25;;;;;;;4.23;0.73;;;10.70;99.90;;;;;;5051345;28;20274;-88
2021/04/22 09:02:52;;;;;;;0.30;0.30;;;10.60;99.90;;;;;;5050912;28;20212;-88
2021/04/22 09:05:18;;;;;;;1.93;1.00;;;10.80;99.90;;;;;;5038109;28;20315;-87
2021/04/22 09:07:44;;;;;;;0.23;0.23;;;9.70;99.90;;;;;;5037527;28;20246;-84
2021/04/22 09:10:14;;;;;;;7.67;1.33;;;9.80;99.90;;;;;;5038713;28;20191;-88
2021/04/22 09:12:40;;;;;;;2.10;1.10;;;10.00;99.90;;;;;;5073104;28;20247;-86
2021/04/22 09:15:12;;;;;;;3.87;1.80;;;9.40;99.90;;;;;;5055930;28;20295;-87
2021/04/22 09:17:39;;;;;;;6.90;0.50;;;9.40;99.90;;;;;;5068313;28;20224;-88
2021/04/22 09:20:08;;;;;;;0.50;0.50;;;9.30;99.90;;;;;;5072988;28;20228;-89
2021/04/22 09:22:35;;;;;;;0.60;0.60;;;9.40;99.90;;;;;;5055150;28;20199;-86
2021/04/22 09:25:17;;;;;;;2.33;0.57;;;9.20;99.90;;;;;;5069972;28;20775;-88
2021/04/22 09:27:43;;;;;;;0.50;0.27;;;9.20;99.90;;;;;;5051850;28;20248;-88
2021/04/22 09:30:11;;;;;;;6.20;1.00;;;9.50;99.90;;;;;;5031488;28;20654;-89
2021/04/22 09:32:38;;;;;;;1.10;0.63;;;10.30;99.90;;;;;;5019655;28;20312;-88
2021/04/22 09:35:14;;;;;;;0.47;0.47;;;9.90;99.90;;;;;;5068910;28;20576;-86
2021/04/22 09:37:48;;;;;;;0.87;0.87;;;9.50;99.90;;;;;;5053786;28;20189;-88
2021/04/22 09:40:35;;;;;;;0.77;0.77;;;9.50;99.90;;;;;;5070069;28;20213;-87
2021/04/22 09:43:06;;;;;;;2.07;0.37;;;9.70;99.90;;;;;;5052840;28;20220;-88
2021/04/22 09:45:34;;;;;;;0.33;0.33;;;9.50;99.90;;;;;;5071844;28;20320;-88
2021/04/22 09:48:12;;;;;;;1.60;1.07;;;9.50;99.90;;;;;;5034943;28;20209;-85
2021/04/22 09:50:42;;;;;;;0.33;0.33;;;9.10;99.90;;;;;;5052533;28;20270;-85
2021/04/22 09:53:11;;;;;;;1.27;0.77;;;9.00;99.90;;;;;;5037303;28;20242;-86
2021/04/22 09:55:37;;;;;;;0.57;0.57;;;9.80;99.90;;;;;;5052710;28;20201;-89
2021/04/22 09:58:03;;;;;;;0.40;0.40;;;10.30;99.90;;;;;;5053559;28;20224;-88
2021/04/22 10:00:32;;;;;;;2.10;1.13;;;11.20;99.90;;;;;;5036699;28;20300;-87
2021/04/22 10:03:00;;;;;;;0.37;0.37;;;10.20;99.90;;;;;;5036778;28;20251;-86
2021/04/22 10:05:32;;;;;;;5.00;0.87;;;9.80;99.90;;;;;;5053796;28;20213;-86
2021/04/22 10:08:12;;;;;;;1.03;0.93;;;10.60;99.90;;;;;;5052178;28;20189;-86
2021/04/22 10:10:41;;;;;;;3.40;0.50;;;10.80;99.90;;;;;;5063639;28;20180;-84
2021/04/22 10:13:10;;;;;;;0.20;0.20;;;10.40;99.90;;;;;;5056034;28;20220;-86
2021/04/22 10:15:36;;;;;;;11.23;1.33;;;10.00;99.90;;;;;;5078631;28;20223;-87
2021/04/22 10:18:06;;;;;;;0.70;0.70;;;9.90;99.90;;;;;;5027260;28;20239;-86
2021/04/22 10:20:37;;;;;;;2.87;1.10;;;9.60;99.90;;;;;;5056053;28;20244;-86
2021/04/22 10:23:04;;;;;;;0.57;0.57;;;10.70;99.90;;;;;;5060454;28;20274;-88
2021/04/22 10:25:32;;;;;;;0.60;0.60;;;10.50;99.90;;;;;;5059934;28;20212;-86
2021/04/22 10:28:15;;;;;;;0.40;0.40;;;10.40;99.90;;;;;;5055477;28;20247;-87
2021/04/22 10:30:43;;;;;;;3.57;0.93;;;9.90;99.90;;;;;;5058476;28;20227;-86
2021/04/22 10:33:09;;;;;;;0.43;0.37;;;10.30;99.90;;;;;;5076526;28;20881;-89
2021/04/22 10:35:38;;;;;;;0.27;0.27;;;10.10;99.90;;;;;;5043368;28;20775;-86
2021/04/22 10:38:05;;;;;;;0.77;0.63;;;9.80;99.90;;;;;;5057585;28;20219;-87
2021/04/22 10:40:34;;;;;;;1.13;1.03;;;10.30;99.90;;;;;;5061042;28;20193;-87
2021/04/22 10:43:03;;;;;;;3.30;0.63;;;10.10;99.90;;;;;;5057731;28;20212;-85
2021/04/22 10:45:31;;;;;;;0.97;0.97;;;9.90;99.90;;;;;;5040927;28;20245;-88
2021/04/22 10:47:58;;;;;;;0.20;0.20;;;9.90;99.90;;;;;;5058747;28;20220;-89
2021/04/22 10:50:29;;;;;;;0.50;0.50;;;10.60;99.90;;;;;;5045853;28;20213;-85
2021/04/22 10:52:57;;;;;;;1.20;1.17;;;10.40;99.90;;;;;;5058326;28;20193;-87
2021/04/22 10:55:34;;;;;;;1.90;0.77;;;10.10;99.90;;;;;;5058569;28;20219;-85
2021/04/22 10:58:22;;;;;;;0.53;0.53;;;10.70;99.90;;;;;;5039477;28;20333;-89
2021/04/22 11:00:51;;;;;;;0.30;0.30;;;10.80;99.90;;;;;;5073905;28;20208;-87
2021/04/22 11:03:26;;;;;;;3.13;0.97;;;10.80;99.90;;;;;;5051043;28;20271;-86
2021/04/22 11:06:01;;;;;;;0.40;0.40;;;10.70;99.90;;;;;;5053939;28;20225;-87
2021/04/22 11:08:36;;;;;;;1.53;0.77;;;10.50;99.90;;;;;;5072903;28;20243;-86
2021/04/22 11:11:18;;;;;;;7.03;0.80;;;11.10;99.90;;;;;;5052440;28;20189;-81
2021/04/22 11:13:44;;;;;;;2.20;0.80;;;11.20;99.90;;;;;;5066358;28;20192;-80
2021/04/22 11:16:10;;;;;;;1.40;0.80;;;12.10;99.90;;;;;;5052799;28;20417;-82
2021/04/22 11:18:45;;;;;;;1.30;0.90;;;11.70;99.90;;;;;;5049855;28;20224;-81
2021/04/22 11:21:49;;;;;;;0.70;0.43;;;12.70;99.90;;;;;;5049225;28;20213;-81
2021/04/22 11:24:35;;;;;;;1.73;0.80;;;12.20;99.90;;;;;;4949527;28;20224;-82
2021/04/22 11:27:14;;;;;;;2.10;0.70;;;12.60;99.90;;;;;;5049787;28;20227;-81
2021/04/22 11:29:52;;;;;;;0.77;0.70;;;11.90;99.90;;;;;;5067049;28;20212;-87
2021/04/22 11:32:27;;;;;;;2.97;1.20;;;11.10;99.90;;;;;;5054512;28;20251;-87
2021/04/22 11:34:55;;;;;;;0.43;0.43;;;10.40;99.90;;;;;;5051267;28;20181;-86
2021/04/22 11:37:22;;;;;;;0.60;0.50;;;9.90;99.90;;;;;;5039253;28;20186;-87
2021/04/22 11:39:49;;;;;;;3.20;0.87;;;9.90;99.90;;;;;;5070566;28;20225;-87
2021/04/22 11:42:19;;;;;;;0.80;0.70;;;10.50;99.90;;;;;;5073590;28;20220;-87
2021/04/22 11:44:49;;;;;;;0.73;0.50;;;10.40;99.90;;;;;;5040690;28;20766;-91
2021/04/22 11:47:32;;;;;;;1.70;0.83;;;10.40;99.90;;;;;;5073671;28;20713;-87
2021/04/22 11:50:10;;;;;;;6.37;0.93;;;9.60;99.90;;;;;;5040966;28;20185;-87
2021/04/22 11:52:51;;;;;;;0.20;0.20;;;9.60;99.90;;;;;;5056085;28;20199;-88
2021/04/22 11:55:20;;;;;;;2.50;0.60;;;9.50;99.90;;;;;;5074181;28;20246;-87
2021/04/22 11:57:55;;;;;;;2.73;0.60;;;9.60;99.90;;;;;;5074412;28;20686;-87
2021/04/22 12:00:24;;;;;;;2.00;0.60;;;9.50;99.90;;;;;;5074906;28;20247;-87
2021/04/22 12:02:50;;;;;;;0.53;0.40;;;9.60;99.90;;;;;;5054151;28;20240;-88
2021/04/22 12:05:18;;;;;;;7.33;1.23;;;9.60;99.90;;;;;;5040265;28;20583;-87
2021/04/22 12:07:54;;;;;;;4.57;1.03;;;9.90;99.90;;;;;;5071301;28;20272;-84
2021/04/22 12:10:20;;;;;;;0.70;0.43;;;9.60;99.90;;;;;;5056156;28;20552;-87
2021/04/22 12:12:47;;;;;;;0.40;0.40;;;9.60;99.90;;;;;;5056497;28;20217;-89
2021/04/22 12:15:13;;;;;;;0.43;0.43;;;9.60;99.90;;;;;;5056782;28;20231;-88
2021/04/22 12:17:39;;;;;;;0.23;0.23;;;10.50;99.90;;;;;;5055008;28;20246;-91
2021/04/22 12:20:10;;;;;;;0.53;0.53;;;10.60;99.90;;;;;;5053613;28;20581;-87
2021/04/22 12:22:42;;;;;;;3.70;1.00;;;10.30;99.90;;;;;;5057181;28;20192;-86
2021/04/22 12:25:18;;;;;;;0.77;0.70;;;10.00;99.90;;;;;;5055282;28;20236;-89
2021/04/22 12:27:50;;;;;;;1.40;0.63;;;10.50;99.90;;;;;;5055558;28;20215;-87
2021/04/22 12:30:21;;;;;;;0.37;0.37;;;10.10;99.90;;;;;;5051977;28;20229;-90
2021/04/22 12:32:59;;;;;;;0.90;0.50;;;10.10;99.90;;;;;;5072471;28;20638;-88
2021/04/22 12:35:29;;;;;;;2.37;0.50;;;10.00;99.90;;;;;;5071928;28;20224;-86
2021/04/22 12:37:56;;;;;;;0.30;0.30;;;10.10;99.90;;;;;;5072453;28;20180;-86
2021/04/22 12:40:23;;;;;;;0.50;0.50;;;9.70;99.90;;;;;;5042768;28;20239;-86
2021/04/22 12:42:49;;;;;;;0.60;0.60;;;9.50;99.90;;;;;;5040475;28;20216;-87
2021/04/22 12:45:22;;;;;;;0.47;0.47;;;9.50;99.90;;;;;;5038232;28;20241;-87
2021/04/22 12:47:52;;;;;;;0.57;0.57;;;9.60;99.90;;;;;;5071467;28;20692;-86
2021/04/22 12:50:30;;;;;;;1.13;1.03;;;9.40;99.90;;;;;;5053378;28;20217;-86
2021/04/22 12:53:09;;;;;;;1.17;0.60;;;9.80;99.90;;;;;;5072338;28;20180;-87
2021/04/22 12:55:41;;;;;;;0.70;0.70;;;9.70;99.90;;;;;;5058413;28;20200;-87
2021/04/22 12:58:08;;;;;;;0.20;0.20;;;9.50;99.90;;;;;;5053075;28;20239;-88
2021/04/22 13:00:46;;;;;;;11.03;0.90;;;9.30;99.90;;;;;;5052816;28;20737;-87